Time;durP1;ratioP1;P1;durP2;ratioP2;P2;SDS_P1;SDS_P2;PMS_P1;PMS_P2;Temp;Humidity;BMP_temperature;BMP_pressure;BME280_temperature;BME280_humidity;BME280_pressure;Samples;Min_cycle;Max_cycle;Signal;HPM_P1;HPM_P2
2024/02/02 00:00:46;;;;;;;4.90;3.40;;;5.50;99.90;;;;;;5059677;28;20482;-64
2024/02/02 00:03:14;;;;;;;10.47;2.73;;;5.50;99.90;;;;;;5060173;28;20425;-63
2024/02/02 00:05:41;;;;;;;11.87;2.40;;;5.50;99.90;;;;;;5059981;28;20455;-64
2024/02/02 00:08:08;;;;;;;9.97;3.17;;;5.50;99.90;;;;;;5059918;28;20476;-63
2024/02/02 00:10:35;;;;;;;6.87;3.10;;;5.50;99.90;;;;;;5059470;28;20481;-66
2024/02/02 00:13:03;;;;;;;6.60;2.27;;;5.50;99.90;;;;;;5059455;28;20492;-66
2024/02/02 00:15:30;;;;;;;11.10;3.20;;;5.50;99.90;;;;;;5059980;28;20440;-62
2024/02/02 00:17:58;;;;;;;17.00;3.63;;;5.50;99.90;;;;;;5059768;28;20517;-64
2024/02/02 00:20:26;;;;;;;10.57;2.50;;;5.50;99.90;;;;;;5059834;28;20418;-63
2024/02/02 00:22:53;;;;;;;20.57;2.83;;;5.50;99.90;;;;;;5059210;28;20452;-65
2024/02/02 00:25:20;;;;;;;22.97;3.13;;;5.50;99.90;;;;;;5058968;28;20446;-65
2024/02/02 00:27:47;;;;;;;9.10;2.70;;;5.50;99.90;;;;;;5059420;28;20445;-62
2024/02/02 00:30:15;;;;;;;25.83;2.33;;;5.50;99.90;;;;;;5059525;28;20486;-63
2024/02/02 00:32:44;;;;;;;26.07;4.33;;;5.50;99.90;;;;;;5059348;28;20484;-65
2024/02/02 00:35:12;;;;;;;15.60;2.50;;;5.40;99.90;;;;;;5059436;28;20461;-63
2024/02/02 00:37:41;;;;;;;8.57;2.93;;;5.50;99.90;;;;;;5058953;28;20466;-65
2024/02/02 00:40:09;;;;;;;10.97;3.20;;;5.50;99.90;;;;;;5059000;28;20446;-62
2024/02/02 00:42:37;;;;;;;14.67;2.57;;;5.50;99.90;;;;;;5059748;28;20447;-64
2024/02/02 00:45:04;;;;;;;10.57;2.97;;;5.50;99.90;;;;;;5059395;28;20477;-64
2024/02/02 00:47:31;;;;;;;10.60;3.20;;;5.50;99.90;;;;;;5059368;28;20465;-64
2024/02/02 00:49:59;;;;;;;8.90;2.40;;;5.50;99.90;;;;;;5058847;28;20535;-61
2024/02/02 00:52:26;;;;;;;5.57;2.20;;;5.50;99.90;;;;;;5058974;28;20449;-64
2024/02/02 00:54:54;;;;;;;4.27;1.80;;;5.50;99.90;;;;;;5058867;28;20457;-62
2024/02/02 00:57:21;;;;;;;8.70;4.53;;;5.50;99.90;;;;;;5058843;28;20422;-63
2024/02/02 00:59:50;;;;;;;28.73;4.30;;;5.50;99.90;;;;;;5059016;28;20428;-64
2024/02/02 01:02:17;;;;;;;8.10;2.53;;;5.50;99.90;;;;;;5058663;28;20447;-62
2024/02/02 01:04:44;;;;;;;11.23;2.80;;;5.50;99.90;;;;;;5058244;28;20470;-62
2024/02/02 01:07:11;;;;;;;4.93;2.07;;;5.50;99.90;;;;;;5058346;28;20485;-64
2024/02/02 01:09:40;;;;;;;11.10;3.70;;;5.50;99.90;;;;;;5058092;28;20505;-64
2024/02/02 01:12:10;;;;;;;14.03;3.23;;;5.40;99.90;;;;;;5058511;28;20430;-64
2024/02/02 01:14:40;;;;;;;12.53;2.93;;;5.40;99.90;;;;;;5058330;28;20446;-62
2024/02/02 01:17:09;;;;;;;9.77;2.43;;;5.40;99.90;;;;;;5057996;28;20410;-62
2024/02/02 01:19:37;;;;;;;17.43;3.63;;;5.40;99.90;;;;;;5058679;28;20491;-63
2024/02/02 01:22:04;;;;;;;18.90;2.60;;;5.40;99.90;;;;;;5058988;28;20450;-62
2024/02/02 01:24:32;;;;;;;10.40;2.87;;;5.40;99.90;;;;;;5058638;28;20448;-64
2024/02/02 01:26:59;;;;;;;10.80;2.27;;;5.40;99.90;;;;;;5058422;28;20460;-64
2024/02/02 01:29:27;;;;;;;9.20;2.60;;;5.30;99.90;;;;;;5058130;28;20537;-63
2024/02/02 01:31:54;;;;;;;14.17;4.30;;;5.40;99.90;;;;;;5058342;28;20469;-63
2024/02/02 01:34:22;;;;;;;7.50;2.33;;;5.40;99.90;;;;;;5058512;28;20504;-65
2024/02/02 01:36:49;;;;;;;10.50;3.40;;;5.40;99.90;;;;;;5058672;28;20454;-63
2024/02/02 01:39:16;;;;;;;7.20;2.40;;;5.40;99.90;;;;;;5058608;28;20442;-62
2024/02/02 01:41:44;;;;;;;11.57;2.13;;;5.40;99.90;;;;;;5057923;28;20575;-63
2024/02/02 01:44:11;;;;;;;13.73;3.47;;;5.40;99.90;;;;;;5058048;28;20433;-64
2024/02/02 01:46:40;;;;;;;15.53;3.30;;;5.40;99.90;;;;;;5057797;28;20456;-64
2024/02/02 01:49:06;;;;;;;7.97;2.57;;;5.40;99.90;;;;;;5058024;28;20440;-62
2024/02/02 01:51:35;;;;;;;18.90;4.60;;;5.50;99.90;;;;;;5057408;28;20462;-64
2024/02/02 01:54:02;;;;;;;11.10;2.67;;;5.50;99.90;;;;;;5057451;28;20450;-64
2024/02/02 01:56:29;;;;;;;16.00;3.27;;;5.50;99.90;;;;;;5057622;28;20437;-64
2024/02/02 01:58:58;;;;;;;6.60;3.17;;;5.50;99.90;;;;;;5057465;28;20557;-62
2024/02/02 02:01:25;;;;;;;11.30;3.00;;;5.50;99.90;;;;;;5057732;28;20430;-64
2024/02/02 02:03:56;;;;;;;15.63;3.07;;;5.60;99.90;;;;;;5057732;28;20437;-64
2024/02/02 02:06:23;;;;;;;16.33;3.63;;;5.60;99.90;;;;;;5057721;28;20434;-63
2024/02/02 02:08:50;;;;;;;13.77;4.23;;;5.60;99.90;;;;;;5087869;23;20490;-61
2024/02/02 02:11:17;;;;;;;8.23;2.40;;;5.60;99.90;;;;;;5076578;28;20515;-63
2024/02/02 02:13:45;;;;;;;9.50;2.60;;;5.50;99.90;;;;;;5076830;28;20450;-61
2024/02/02 02:16:13;;;;;;;8.73;2.43;;;5.60;99.90;;;;;;5076593;28;20476;-61
2024/02/02 02:18:41;;;;;;;8.83;3.10;;;5.60;99.90;;;;;;5076789;28;20437;-58
2024/02/02 02:21:23;;;;;;;16.80;3.10;;;5.50;99.90;;;;;;5075885;28;20469;-64
2024/02/02 02:23:51;;;;;;;8.23;3.37;;;5.50;99.90;;;;;;5075662;28;20555;-64
2024/02/02 02:26:18;;;;;;;15.63;3.70;;;5.50;99.90;;;;;;5075473;28;20476;-62
2024/02/02 02:28:45;;;;;;;12.83;3.53;;;5.50;99.90;;;;;;5075192;28;20457;-60
2024/02/02 02:31:13;;;;;;;18.97;4.03;;;5.50;99.90;;;;;;5074101;28;20516;-61
2024/02/02 02:33:40;;;;;;;8.37;2.90;;;5.50;99.90;;;;;;5075168;28;20448;-62
2024/02/02 02:36:08;;;;;;;10.93;3.40;;;5.50;99.90;;;;;;5074739;28;20472;-61
2024/02/02 02:38:37;;;;;;;6.17;2.70;;;5.50;99.90;;;;;;5075312;28;20552;-62
2024/02/02 02:41:04;;;;;;;15.40;4.07;;;5.60;99.90;;;;;;5075050;28;20421;-61
2024/02/02 02:43:31;;;;;;;12.13;3.47;;;5.60;99.90;;;;;;5075319;28;20464;-62
2024/02/02 02:45:58;;;;;;;18.50;4.00;;;5.50;99.90;;;;;;5075189;28;20467;-61
2024/02/02 02:48:25;;;;;;;6.80;4.03;;;5.60;99.90;;;;;;5074556;28;20445;-62
2024/02/02 02:50:52;;;;;;;5.17;2.83;;;5.60;99.90;;;;;;5074619;28;20770;-62
2024/02/02 02:53:19;;;;;;;11.80;3.13;;;5.60;99.90;;;;;;5075751;28;20478;-63
2024/02/02 02:55:50;;;;;;;20.33;3.70;;;5.50;99.90;;;;;;5094933;28;20463;-61
2024/02/02 02:58:17;;;;;;;15.17;3.80;;;5.50;99.90;;;;;;5094666;28;20424;-62
2024/02/02 03:00:44;;;;;;;11.93;3.43;;;5.50;99.90;;;;;;5094678;28;20495;-61
2024/02/02 03:03:12;;;;;;;6.20;2.83;;;5.50;99.90;;;;;;5094467;28;20453;-60
2024/02/02 03:05:39;;;;;;;7.50;2.80;;;5.50;99.90;;;;;;5095377;28;20474;-61
2024/02/02 03:08:06;;;;;;;12.07;4.33;;;5.50;99.90;;;;;;5094994;28;20479;-63
2024/02/02 03:10:34;;;;;;;7.47;2.90;;;5.60;99.90;;;;;;5094796;28;20454;-61
2024/02/02 03:13:03;;;;;;;10.80;3.83;;;5.50;99.90;;;;;;5094626;28;21201;-63
2024/02/02 03:15:31;;;;;;;9.07;3.30;;;5.50;99.90;;;;;;5094725;28;20428;-62
2024/02/02 03:17:58;;;;;;;14.27;3.43;;;5.50;99.90;;;;;;5094312;28;20456;-58
2024/02/02 03:20:27;;;;;;;13.20;3.70;;;5.50;99.90;;;;;;5095029;28;20467;-61
2024/02/02 03:22:54;;;;;;;18.30;4.30;;;5.50;99.90;;;;;;5094958;28;20485;-62
2024/02/02 03:25:21;;;;;;;24.03;5.37;;;5.50;99.90;;;;;;5095611;28;20471;-61
2024/02/02 03:27:48;;;;;;;6.77;2.77;;;5.50;99.90;;;;;;5095967;28;20483;-62
2024/02/02 03:30:17;;;;;;;9.37;4.60;;;5.60;99.90;;;;;;5095782;28;20448;-60
2024/02/02 03:32:46;;;;;;;18.13;4.10;;;5.50;99.90;;;;;;5096105;28;20461;-62
2024/02/02 03:35:14;;;;;;;15.90;5.37;;;5.50;99.90;;;;;;5095544;28;20440;-62
2024/02/02 03:37:41;;;;;;;24.37;6.93;;;5.50;99.90;;;;;;5094792;28;20462;-61
2024/02/02 03:40:09;;;;;;;16.97;4.90;;;5.50;99.90;;;;;;5094924;28;20630;-60
2024/02/02 03:42:36;;;;;;;14.70;4.17;;;5.50;99.90;;;;;;5094371;28;20527;-60
2024/02/02 03:45:04;;;;;;;10.07;4.50;;;5.60;99.90;;;;;;5094372;28;20454;-61
2024/02/02 03:47:32;;;;;;;13.37;4.77;;;5.60;99.90;;;;;;5094466;28;20451;-61
2024/02/02 03:49:59;;;;;;;18.33;4.27;;;5.50;99.90;;;;;;5094499;28;20526;-61
2024/02/02 03:52:26;;;;;;;12.50;5.93;;;5.50;99.90;;;;;;5094114;28;20508;-60
2024/02/02 03:54:53;;;;;;;9.00;4.40;;;5.50;99.90;;;;;;5094577;28;20454;-61
2024/02/02 03:57:20;;;;;;;7.93;3.00;;;5.50;99.90;;;;;;5094279;28;20448;-62
2024/02/02 03:59:47;;;;;;;11.77;5.57;;;5.60;99.90;;;;;;5094809;28;21001;-60
2024/02/02 04:02:14;;;;;;;22.70;5.80;;;5.50;99.90;;;;;;5094255;28;20476;-61
2024/02/02 04:04:42;;;;;;;16.47;4.57;;;5.50;99.90;;;;;;5095123;28;20452;-62
2024/02/02 04:07:09;;;;;;;9.37;4.37;;;5.50;99.90;;;;;;5094608;28;20492;-61
2024/02/02 04:09:37;;;;;;;12.67;4.30;;;5.60;99.90;;;;;;5094792;28;20452;-59
2024/02/02 04:12:05;;;;;;;16.40;4.07;;;5.60;99.90;;;;;;5094700;28;20484;-61
2024/02/02 04:14:32;;;;;;;8.63;4.60;;;5.60;99.90;;;;;;5093892;28;20480;-60
2024/02/02 04:16:58;;;;;;;12.87;4.00;;;5.60;99.90;;;;;;5097198;28;20463;-61
2024/02/02 04:19:25;;;;;;;14.70;4.73;;;5.60;99.90;;;;;;5097454;28;20427;-61
2024/02/02 04:21:54;;;;;;;18.63;4.10;;;5.60;99.90;;;;;;5097554;28;20832;-61
2024/02/02 04:24:21;;;;;;;11.60;4.87;;;5.60;99.90;;;;;;5097508;28;20486;-61
2024/02/02 04:26:47;;;;;;;11.27;4.47;;;5.60;99.90;;;;;;5097396;28;20479;-62
2024/02/02 04:29:14;;;;;;;12.93;3.80;;;5.50;99.90;;;;;;5096115;28;20447;-61
2024/02/02 04:31:41;;;;;;;9.80;5.37;;;5.50;99.90;;;;;;5074787;28;20514;-60
2024/02/02 04:34:11;;;;;;;12.93;4.33;;;5.60;99.90;;;;;;5076324;28;20430;-60
2024/02/02 04:36:38;;;;;;;6.63;3.33;;;5.60;99.90;;;;;;5076024;28;20441;-61
2024/02/02 04:39:09;;;;;;;22.40;4.43;;;5.60;99.90;;;;;;5076577;28;20464;-61
2024/02/02 04:41:36;;;;;;;10.80;4.70;;;5.50;99.90;;;;;;5076605;28;20437;-61
2024/02/02 04:44:05;;;;;;;15.10;5.00;;;5.50;99.90;;;;;;5076444;28;20456;-62
2024/02/02 04:46:32;;;;;;;6.53;3.73;;;5.50;99.90;;;;;;5077341;28;20431;-60
2024/02/02 04:48:59;;;;;;;13.30;4.40;;;5.50;99.90;;;;;;5077153;28;20457;-60
2024/02/02 04:51:26;;;;;;;32.90;6.77;;;5.50;99.90;;;;;;5076742;28;20476;-63
2024/02/02 04:53:53;;;;;;;11.60;4.10;;;5.50;99.90;;;;;;5077354;28;20442;-62
2024/02/02 04:56:21;;;;;;;12.63;4.20;;;5.50;99.90;;;;;;5076835;28;20468;-62
2024/02/02 04:58:51;;;;;;;10.57;4.50;;;5.50;99.90;;;;;;5076773;28;20453;-59
2024/02/02 05:01:20;;;;;;;12.10;4.53;;;5.40;99.90;;;;;;5076551;28;20476;-63
2024/02/02 05:03:47;;;;;;;10.63;4.63;;;5.50;99.90;;;;;;5076595;28;20417;-61
2024/02/02 05:06:16;;;;;;;10.70;4.27;;;5.40;99.90;;;;;;5076629;28;20495;-61
2024/02/02 05:08:43;;;;;;;14.00;3.90;;;5.40;99.90;;;;;;5076740;28;20459;-62
2024/02/02 05:11:10;;;;;;;13.83;5.67;;;5.40;99.90;;;;;;5073676;28;20454;-60
2024/02/02 05:13:38;;;;;;;4.87;2.30;;;5.40;99.90;;;;;;5068139;28;20448;-61
2024/02/02 05:16:07;;;;;;;11.70;5.00;;;5.50;99.90;;;;;;5077191;28;20441;-61
2024/02/02 05:18:34;;;;;;;9.20;3.57;;;5.50;99.90;;;;;;5077438;28;20452;-63
2024/02/02 05:21:01;;;;;;;9.80;3.70;;;5.50;99.90;;;;;;5076869;28;20440;-62
2024/02/02 05:23:28;;;;;;;13.33;5.33;;;5.50;99.90;;;;;;5076750;28;20444;-62
2024/02/02 05:25:54;;;;;;;15.10;5.03;;;5.50;99.90;;;;;;5076531;28;20480;-61
2024/02/02 05:28:21;;;;;;;10.50;3.10;;;5.50;99.90;;;;;;5076644;28;20449;-61
2024/02/02 05:30:50;;;;;;;17.13;4.23;;;5.50;99.90;;;;;;5076182;28;20473;-62
2024/02/02 05:33:20;;;;;;;8.63;3.47;;;5.50;99.90;;;;;;5076420;28;20474;-61
2024/02/02 05:35:47;;;;;;;15.33;4.47;;;5.50;99.90;;;;;;5076088;28;20500;-62
2024/02/02 05:38:14;;;;;;;6.73;3.50;;;5.50;99.90;;;;;;5076149;28;20441;-62
2024/02/02 05:40:41;;;;;;;15.30;3.40;;;5.50;99.90;;;;;;5076039;28;20458;-62
2024/02/02 05:43:10;;;;;;;27.43;3.27;;;5.50;99.90;;;;;;5075799;28;20437;-61
2024/02/02 05:45:37;;;;;;;9.20;4.10;;;5.50;99.90;;;;;;5076425;28;20445;-61
2024/02/02 05:48:06;;;;;;;13.00;3.87;;;5.60;99.90;;;;;;5075972;28;20457;-61
2024/02/02 05:50:33;;;;;;;14.17;4.60;;;5.60;99.90;;;;;;5076005;28;20449;-61
2024/02/02 05:53:00;;;;;;;17.47;5.53;;;5.50;99.90;;;;;;5076092;28;20507;-61
2024/02/02 05:55:27;;;;;;;11.70;3.40;;;5.60;99.90;;;;;;5076009;28;20484;-62
2024/02/02 05:57:54;;;;;;;14.53;3.40;;;5.60;99.90;;;;;;5075493;28;20546;-62
2024/02/02 06:00:21;;;;;;;16.27;4.00;;;5.60;99.90;;;;;;5075481;28;20428;-61
2024/02/02 06:02:48;;;;;;;10.93;3.70;;;5.70;99.90;;;;;;5075951;28;20441;-61
2024/02/02 06:05:17;;;;;;;8.50;3.20;;;5.70;99.90;;;;;;5075911;28;20481;-60
2024/02/02 06:07:43;;;;;;;23.17;4.00;;;5.60;99.90;;;;;;5075737;28;20449;-61
2024/02/02 06:10:10;;;;;;;12.63;4.67;;;5.60;99.90;;;;;;5075328;28;20481;-61
2024/02/02 06:12:37;;;;;;;15.80;4.27;;;5.60;99.90;;;;;;5059955;28;20513;-61
2024/02/02 06:15:05;;;;;;;13.83;4.30;;;5.70;99.90;;;;;;5055896;28;20467;-62
2024/02/02 06:17:34;;;;;;;12.33;4.33;;;5.70;99.90;;;;;;5055437;28;20442;-61
2024/02/02 06:20:01;;;;;;;13.03;4.37;;;5.70;99.90;;;;;;5055389;28;20484;-63
2024/02/02 06:22:29;;;;;;;14.50;3.63;;;5.70;99.90;;;;;;5055514;28;20439;-59
2024/02/02 06:24:56;;;;;;;10.47;4.00;;;5.70;99.90;;;;;;5055666;28;20572;-60
2024/02/02 06:27:23;;;;;;;10.00;3.30;;;5.70;99.90;;;;;;5055662;28;20465;-61
2024/02/02 06:29:50;;;;;;;16.53;4.23;;;5.70;99.90;;;;;;5055698;28;20513;-61
2024/02/02 06:32:21;;;;;;;9.30;3.73;;;5.70;99.90;;;;;;5055948;28;20493;-61
2024/02/02 06:34:48;;;;;;;12.23;3.40;;;5.80;99.90;;;;;;5056787;28;20424;-61
2024/02/02 06:37:15;;;;;;;12.43;4.00;;;5.80;99.90;;;;;;5056693;28;20458;-57
2024/02/02 06:39:46;;;;;;;14.77;4.03;;;5.80;99.90;;;;;;5055506;28;20466;-59
2024/02/02 06:42:13;;;;;;;9.07;4.43;;;5.80;99.90;;;;;;5055995;28;20427;-62
2024/02/02 06:44:42;;;;;;;27.90;5.57;;;5.80;99.90;;;;;;5066017;28;20455;-60
2024/02/02 06:47:09;;;;;;;18.10;4.80;;;5.80;99.90;;;;;;5083017;28;20457;-62
2024/02/02 06:49:36;;;;;;;11.67;3.80;;;5.90;99.90;;;;;;5075012;28;20465;-61
2024/02/02 06:52:04;;;;;;;7.63;3.70;;;5.80;99.90;;;;;;5074672;28;20547;-62
2024/02/02 06:54:31;;;;;;;11.83;4.10;;;5.90;99.90;;;;;;5074450;28;20503;-61
2024/02/02 06:56:59;;;;;;;10.17;4.43;;;6.00;99.90;;;;;;5059133;28;20486;-61
2024/02/02 06:59:26;;;;;;;27.57;4.83;;;6.00;99.90;;;;;;5055192;28;20464;-62
2024/02/02 07:01:54;;;;;;;11.70;4.03;;;6.00;99.90;;;;;;5055375;28;20485;-62
2024/02/02 07:04:21;;;;;;;11.37;3.53;;;6.10;99.90;;;;;;5054651;28;20450;-62
2024/02/02 07:06:49;;;;;;;9.40;3.63;;;6.10;99.90;;;;;;5055091;28;20485;-63
2024/02/02 07:09:29;;;;;;;15.27;4.73;;;6.10;99.90;;;;;;5055080;28;20450;-63
2024/02/02 07:12:00;;;;;;;9.30;3.40;;;6.10;99.90;;;;;;5056206;28;20516;-62
2024/02/02 07:14:48;;;;;;;11.37;4.60;;;6.10;99.90;;;;;;5054659;28;20521;-61
2024/02/02 07:17:34;;;;;;;36.17;4.97;;;6.10;99.90;;;;;;5044029;28;20501;-62
2024/02/02 07:20:04;;;;;;;9.27;3.17;;;6.20;99.90;;;;;;5054782;28;20427;-61
2024/02/02 07:22:49;;;;;;;16.00;6.10;;;6.10;99.90;;;;;;5055031;28;20495;-62
2024/02/02 07:25:25;;;;;;;14.00;3.60;;;6.10;99.90;;;;;;5054875;28;20473;-60
2024/02/02 07:27:59;;;;;;;8.67;3.20;;;6.10;99.90;;;;;;5055386;28;20547;-60
2024/02/02 07:30:47;;;;;;;16.97;4.07;;;6.10;99.90;;;;;;5055267;28;20445;-60
2024/02/02 07:33:26;;;;;;;15.70;4.43;;;6.10;99.90;;;;;;5055220;28;20498;-63
2024/02/02 07:35:57;;;;;;;5.80;3.00;;;6.10;99.90;;;;;;5055112;28;20446;-63
2024/02/02 07:38:45;;;;;;;9.97;4.13;;;6.10;99.90;;;;;;5055005;28;20439;-62
2024/02/02 07:41:13;;;;;;;12.83;3.60;;;6.10;99.90;;;;;;5054816;28;20439;-62
2024/02/02 07:43:42;;;;;;;16.03;3.90;;;6.10;99.90;;;;;;5054424;28;20431;-59
2024/02/02 07:46:09;;;;;;;6.30;3.00;;;6.20;99.90;;;;;;5054798;28;20460;-60
2024/02/02 07:48:37;;;;;;;10.63;4.00;;;6.20;99.90;;;;;;5054555;28;20455;-58
2024/02/02 07:51:05;;;;;;;14.80;3.47;;;6.30;99.90;;;;;;5056318;28;20458;-62
2024/02/02 07:53:32;;;;;;;13.27;4.10;;;6.40;99.90;;;;;;5062755;28;20513;-62
2024/02/02 07:55:59;;;;;;;15.70;4.20;;;6.40;99.90;;;;;;5073683;28;20474;-62
2024/02/02 07:58:26;;;;;;;10.37;5.03;;;6.40;99.90;;;;;;5075979;28;20416;-62
2024/02/02 08:00:54;;;;;;;15.03;3.83;;;6.50;99.90;;;;;;5073346;28;20456;-62
2024/02/02 08:03:21;;;;;;;13.77;4.17;;;6.50;99.90;;;;;;5073187;28;20501;-61
2024/02/02 08:05:48;;;;;;;22.37;7.23;;;6.50;99.90;;;;;;5078282;28;20433;-61
2024/02/02 08:08:15;;;;;;;7.60;4.40;;;6.50;99.90;;;;;;5071847;28;20458;-59
2024/02/02 08:10:43;;;;;;;18.53;3.70;;;6.50;99.90;;;;;;5075802;28;20453;-61
2024/02/02 08:13:11;;;;;;;7.30;3.97;;;6.50;99.90;;;;;;5060215;28;20470;-61
2024/02/02 08:15:38;;;;;;;15.30;5.43;;;6.50;99.90;;;;;;5074744;28;20436;-61
2024/02/02 08:18:07;;;;;;;11.80;4.43;;;6.50;99.90;;;;;;5063664;28;20442;-62
2024/02/02 08:20:37;;;;;;;12.40;5.23;;;6.50;99.90;;;;;;5065872;28;20494;-62
2024/02/02 08:23:05;;;;;;;6.93;2.83;;;7.10;99.90;;;;;;5057491;28;20443;-61
2024/02/02 08:25:33;;;;;;;8.43;4.60;;;7.40;99.90;;;;;;5066586;28;20521;-60
2024/02/02 08:28:01;;;;;;;13.83;3.77;;;7.40;99.90;;;;;;5077077;28;20482;-60
2024/02/02 08:30:28;;;;;;;13.63;4.20;;;7.30;99.90;;;;;;5077484;28;20521;-63
2024/02/02 08:32:55;;;;;;;17.33;4.43;;;7.20;99.90;;;;;;5072444;28;20468;-61
2024/02/02 08:35:25;;;;;;;10.13;3.63;;;7.30;99.90;;;;;;5057035;28;20448;-61
2024/02/02 08:37:52;;;;;;;11.10;4.20;;;7.20;99.90;;;;;;5057308;28;20466;-61
2024/02/02 08:40:27;;;;;;;16.53;4.17;;;7.00;99.90;;;;;;5058036;28;20450;-61
2024/02/02 08:42:57;;;;;;;11.57;4.13;;;6.90;99.90;;;;;;5059111;28;20493;-61
2024/02/02 08:46:03;;;;;;;5.40;3.60;;;7.00;99.90;;;;;;5073548;28;20488;-62
2024/02/02 08:48:56;;;;;;;16.83;5.07;;;7.10;99.90;;;;;;5063286;28;20469;-62
2024/02/02 08:52:02;;;;;;;13.23;4.47;;;7.20;99.90;;;;;;5071040;28;20442;-62
2024/02/02 08:54:47;;;;;;;6.77;3.30;;;7.10;99.90;;;;;;5067675;28;20434;-63
2024/02/02 08:58:03;;;;;;;15.60;3.60;;;7.20;99.90;;;;;;5061689;28;20588;-62
2024/02/02 09:00:39;;;;;;;7.83;4.27;;;7.20;99.90;;;;;;5056971;28;20932;-61
2024/02/02 09:03:34;;;;;;;15.63;4.23;;;7.30;99.90;;;;;;5069235;28;20418;-62
2024/02/02 09:06:04;;;;;;;6.53;3.77;;;7.30;99.90;;;;;;5064412;28;20434;-62
2024/02/02 09:08:39;;;;;;;11.87;3.80;;;7.20;99.90;;;;;;5067047;28;20504;-61
2024/02/02 09:11:21;;;;;;;14.20;4.00;;;7.20;99.90;;;;;;5070232;28;20465;-62
2024/02/02 09:13:48;;;;;;;11.20;4.50;;;7.20;99.90;;;;;;5068990;28;20479;-62
2024/02/02 09:16:17;;;;;;;5.07;3.80;;;7.20;99.90;;;;;;5072331;28;20424;-62
2024/02/02 09:18:54;;;;;;;16.40;5.57;;;7.20;99.90;;;;;;5068680;28;20523;-63
2024/02/02 09:21:25;;;;;;;25.77;4.50;;;7.20;99.90;;;;;;5066662;28;20462;-61
2024/02/02 09:23:54;;;;;;;11.47;4.30;;;7.20;99.90;;;;;;5066290;28;20426;-61
2024/02/02 09:26:33;;;;;;;14.43;4.43;;;7.10;99.90;;;;;;5069078;28;20458;-61
2024/02/02 09:29:01;;;;;;;18.33;5.97;;;7.20;99.90;;;;;;5072278;28;20441;-62
2024/02/02 09:31:35;;;;;;;16.10;5.60;;;7.20;99.90;;;;;;5075130;28;20483;-64
2024/02/02 09:34:06;;;;;;;16.67;4.70;;;7.20;99.90;;;;;;5074982;28;20469;-62
2024/02/02 09:36:33;;;;;;;8.57;4.87;;;7.10;99.90;;;;;;5076009;28;20429;-62
2024/02/02 09:39:09;;;;;;;10.33;4.03;;;7.10;99.90;;;;;;5075490;28;20438;-63
2024/02/02 09:42:08;;;;;;;10.50;4.90;;;7.10;99.90;;;;;;5071661;28;20450;-61
2024/02/02 09:44:55;;;;;;;22.10;5.27;;;7.00;99.90;;;;;;5073208;28;20461;-62
2024/02/02 09:47:40;;;;;;;11.83;4.60;;;7.00;99.90;;;;;;5070346;28;20430;-62
2024/02/02 09:50:21;;;;;;;13.33;4.50;;;7.00;99.90;;;;;;5063827;28;20474;-59
2024/02/02 09:53:04;;;;;;;13.00;4.23;;;7.00;99.90;;;;;;5055382;28;20451;-64
2024/02/02 09:55:45;;;;;;;7.57;2.63;;;6.90;99.90;;;;;;5062790;28;20444;-62
2024/02/02 09:58:19;;;;;;;8.50;4.80;;;7.00;99.90;;;;;;5064279;28;20493;-60
2024/02/02 10:00:58;;;;;;;13.70;3.57;;;7.00;99.90;;;;;;5062139;28;20517;-61
2024/02/02 10:03:34;;;;;;;9.27;3.70;;;7.00;99.90;;;;;;5075368;28;20449;-62
2024/02/02 10:06:16;;;;;;;7.50;4.53;;;7.00;99.90;;;;;;5075267;28;20431;-64
2024/02/02 10:09:06;;;;;;;8.73;4.10;;;7.00;99.90;;;;;;5075225;28;20457;-62
2024/02/02 10:12:06;;;;;;;12.33;4.43;;;7.10;99.90;;;;;;5074609;28;20434;-64
2024/02/02 10:15:17;;;;;;;12.03;3.80;;;7.10;99.90;;;;;;5073742;28;20485;-63
2024/02/02 10:18:06;;;;;;;12.77;3.40;;;7.10;99.90;;;;;;5083754;22;20552;-62
2024/02/02 10:20:38;;;;;;;6.57;4.33;;;7.10;99.90;;;;;;5055925;28;20438;-65
2024/02/02 10:23:33;;;;;;;7.80;4.17;;;7.10;99.90;;;;;;5055176;28;20454;-64
2024/02/02 10:26:37;;;;;;;6.37;3.43;;;7.10;99.90;;;;;;5055279;28;20448;-64
2024/02/02 10:29:17;;;;;;;6.37;3.47;;;7.20;99.90;;;;;;5054962;28;20450;-64
2024/02/02 10:32:15;;;;;;;10.13;4.03;;;7.20;99.90;;;;;;5053373;28;20439;-64
2024/02/02 10:34:56;;;;;;;9.37;3.67;;;7.20;99.90;;;;;;5050129;28;20506;-62
2024/02/02 10:37:34;;;;;;;18.70;4.47;;;7.30;99.90;;;;;;5054288;28;20443;-64
2024/02/02 10:40:33;;;;;;;6.10;2.87;;;7.40;99.90;;;;;;5050797;28;20462;-64
2024/02/02 10:43:19;;;;;;;9.40;3.20;;;7.40;99.90;;;;;;5034422;28;20443;-64
2024/02/02 10:46:01;;;;;;;9.50;4.03;;;7.50;99.90;;;;;;5034278;28;20473;-64
2024/02/02 10:48:55;;;;;;;7.87;3.00;;;7.50;99.90;;;;;;5033876;28;20467;-64
2024/02/02 10:51:31;;;;;;;9.23;2.80;;;7.60;99.90;;;;;;5033511;28;20503;-64
2024/02/02 10:54:11;;;;;;;9.33;2.50;;;7.70;99.90;;;;;;5033549;28;20467;-64
2024/02/02 10:56:53;;;;;;;7.70;2.57;;;7.70;99.90;;;;;;5034114;28;20471;-63
2024/02/02 10:59:35;;;;;;;5.93;2.20;;;7.70;99.90;;;;;;5038557;28;20446;-62
2024/02/02 11:02:12;;;;;;;18.83;3.63;;;7.80;99.90;;;;;;5041801;28;20485;-64
2024/02/02 11:04:52;;;;;;;4.80;2.40;;;7.90;99.90;;;;;;5033528;28;20452;-63
2024/02/02 11:07:23;;;;;;;3.50;2.80;;;8.00;99.90;;;;;;5033393;28;20446;-65
2024/02/02 11:09:57;;;;;;;3.57;2.13;;;8.00;99.90;;;;;;5032849;28;20498;-64
2024/02/02 11:12:40;;;;;;;7.43;2.27;;;8.10;99.90;;;;;;5069700;28;20462;-63
2024/02/02 11:15:20;;;;;;;8.30;2.37;;;8.20;99.90;;;;;;5073013;28;20471;-62
2024/02/02 11:17:57;;;;;;;13.97;3.10;;;8.20;99.90;;;;;;5072458;28;20533;-63
2024/02/02 11:20:40;;;;;;;5.03;2.47;;;8.20;99.90;;;;;;5056522;28;20454;-63
2024/02/02 11:23:13;;;;;;;4.80;2.30;;;8.30;99.90;;;;;;5050046;28;20436;-66
2024/02/02 11:25:50;;;;;;;6.50;2.90;;;8.30;99.90;;;;;;5055967;28;20471;-63
2024/02/02 11:28:24;;;;;;;7.83;3.50;;;8.30;99.90;;;;;;5057147;28;20435;-64
2024/02/02 11:31:02;;;;;;;7.20;3.07;;;8.30;99.90;;;;;;5051722;28;20547;-63
2024/02/02 11:33:47;;;;;;;14.63;3.43;;;8.30;99.90;;;;;;5056721;28;20475;-63
2024/02/02 11:36:37;;;;;;;8.20;3.50;;;8.30;99.90;;;;;;5056322;28;20467;-61
2024/02/02 11:39:20;;;;;;;13.23;3.20;;;8.30;99.90;;;;;;5057018;28;20440;-63
2024/02/02 11:41:48;;;;;;;7.20;2.90;;;8.30;99.90;;;;;;5056440;28;20467;-66
2024/02/02 11:44:18;;;;;;;14.93;4.97;;;8.40;99.90;;;;;;5055239;28;20447;-62
2024/02/02 11:46:48;;;;;;;9.67;4.10;;;8.50;99.90;;;;;;5054283;28;20448;-59
2024/02/02 11:49:23;;;;;;;22.57;4.83;;;8.60;99.90;;;;;;5049970;28;20471;-63
2024/02/02 11:51:54;;;;;;;7.50;3.67;;;8.60;99.90;;;;;;5044372;28;20434;-65
2024/02/02 11:54:30;;;;;;;4.40;3.17;;;8.70;99.90;;;;;;5041050;28;20498;-65
2024/02/02 11:57:04;;;;;;;7.67;3.67;;;8.70;99.90;;;;;;5046584;28;20447;-65
2024/02/02 11:59:39;;;;;;;7.83;2.77;;;8.80;99.90;;;;;;5044093;28;20499;-63
2024/02/02 12:02:27;;;;;;;6.10;2.90;;;8.80;99.90;;;;;;5044728;28;20441;-60
2024/02/02 12:04:59;;;;;;;10.37;3.70;;;8.80;99.90;;;;;;5045067;28;20500;-64
2024/02/02 12:07:37;;;;;;;10.60;3.97;;;8.70;99.90;;;;;;5044127;28;20451;-62
2024/02/02 12:10:07;;;;;;;10.20;4.00;;;8.80;99.90;;;;;;5045484;28;20577;-63
2024/02/02 12:12:40;;;;;;;8.03;4.10;;;8.80;99.90;;;;;;5046785;28;20506;-65
2024/02/02 12:15:09;;;;;;;10.90;4.10;;;8.70;99.90;;;;;;5051617;28;20481;-63
2024/02/02 12:17:38;;;;;;;6.03;3.10;;;8.70;99.90;;;;;;5050134;28;20435;-64
2024/02/02 12:20:10;;;;;;;13.93;4.27;;;8.50;99.90;;;;;;5054596;28;20547;-64
2024/02/02 12:22:39;;;;;;;11.03;4.00;;;8.50;99.90;;;;;;5053281;28;20505;-65
2024/02/02 12:25:09;;;;;;;16.70;3.33;;;8.50;99.90;;;;;;5054202;28;20448;-65
2024/02/02 12:27:36;;;;;;;9.03;3.77;;;8.60;99.90;;;;;;5054443;28;20464;-65
2024/02/02 12:30:07;;;;;;;5.53;2.90;;;8.60;99.90;;;;;;5054903;28;20431;-66
2024/02/02 12:32:34;;;;;;;9.80;4.10;;;8.50;99.90;;;;;;5054480;28;20436;-65
2024/02/02 12:35:04;;;;;;;9.20;3.40;;;8.50;99.90;;;;;;5054524;28;20474;-64
2024/02/02 12:37:45;;;;;;;8.80;3.87;;;8.40;99.90;;;;;;5047694;28;20559;-65
2024/02/02 12:40:13;;;;;;;12.17;3.53;;;8.40;99.90;;;;;;5042541;28;20506;-64
2024/02/02 12:42:40;;;;;;;11.30;3.60;;;8.40;99.90;;;;;;5036311;28;20926;-63
2024/02/02 12:45:14;;;;;;;12.27;3.80;;;8.30;99.90;;;;;;5037318;28;20472;-65
2024/02/02 12:47:42;;;;;;;8.67;3.40;;;8.20;99.90;;;;;;5052526;28;20469;-65
2024/02/02 12:50:16;;;;;;;13.10;3.93;;;8.10;99.90;;;;;;5047657;28;20471;-66
2024/02/02 12:52:46;;;;;;;6.47;3.40;;;8.00;99.90;;;;;;5035495;28;20459;-63
2024/02/02 12:55:14;;;;;;;8.43;4.93;;;7.90;99.90;;;;;;5055638;28;20530;-64
2024/02/02 12:57:41;;;;;;;7.23;3.60;;;7.80;99.90;;;;;;5051824;28;20486;-63
2024/02/02 13:00:13;;;;;;;12.70;4.00;;;7.90;99.90;;;;;;5047818;28;20448;-63
2024/02/02 13:02:41;;;;;;;14.10;4.17;;;7.90;99.90;;;;;;5035216;28;20706;-62
2024/02/02 13:05:10;;;;;;;9.30;3.90;;;7.90;99.90;;;;;;5035734;28;20461;-65
2024/02/02 13:07:38;;;;;;;13.20;3.87;;;7.90;99.90;;;;;;5035292;28;20580;-64
2024/02/02 13:10:07;;;;;;;9.90;3.37;;;7.90;99.90;;;;;;5054852;28;20432;-64
2024/02/02 13:12:39;;;;;;;9.17;4.20;;;7.90;99.90;;;;;;5055441;28;20454;-63